createdAt,value
2018-07-03T00:01:20.875Z,38.69
2018-07-03T00:03:51.535Z,39.42
2018-07-03T00:06:22.249Z,39.74
2018-07-03T00:08:52.903Z,39.41
2018-07-03T00:11:23.601Z,39.53
2018-07-03T00:13:54.105Z,39.75
2018-07-03T00:16:29.759Z,40.12
2018-07-03T00:19:00.452Z,40.24
2018-07-03T00:21:31.148Z,39.89
2018-07-03T00:24:01.824Z,40.10
2018-07-03T00:26:32.456Z,39.75
2018-07-03T00:29:03.098Z,39.75
2018-07-03T00:31:33.775Z,39.92
2018-07-03T00:34:04.459Z,39.59
2018-07-03T00:36:35.151Z,39.80
2018-07-03T00:39:08.873Z,39.78
2018-07-03T00:41:39.528Z,39.41
2018-07-03T00:44:10.189Z,39.53
2018-07-03T00:46:40.487Z,39.79
2018-07-03T00:49:11.007Z,39.37
2018-07-03T00:51:41.672Z,39.59
2018-07-03T00:54:12.452Z,39.77
2018-07-03T00:56:43.143Z,39.35
2018-07-03T00:59:13.780Z,39.48
2018-07-03T01:01:44.480Z,39.60
2018-07-03T01:04:15.167Z,39.54
2018-07-03T01:06:45.868Z,39.35
2018-07-03T01:09:16.520Z,39.83
2018-07-03T01:11:47.270Z,39.90
2018-07-03T01:14:17.955Z,40.29
2018-07-03T01:16:48.604Z,40.42
2018-07-03T01:19:19.423Z,41.07
2018-07-03T01:21:50.096Z,41.46
2018-07-03T01:24:20.746Z,41.55
2018-07-03T01:26:51.486Z,42.35
2018-07-03T01:29:22.180Z,42.76
2018-07-03T01:31:52.824Z,42.72
2018-07-03T01:34:23.485Z,43.41
2018-07-03T01:36:54.151Z,43.64
2018-07-03T01:39:24.911Z,44.33
2018-07-03T01:41:55.558Z,44.82
2018-07-03T01:44:26.248Z,45.02
2018-07-03T01:46:56.876Z,45.54
2018-07-03T01:49:27.548Z,45.49
2018-07-03T01:51:58.178Z,45.90
2018-07-03T01:54:28.836Z,46.50
2018-07-03T01:56:59.599Z,46.65
2018-07-03T01:59:30.284Z,47.02
2018-07-03T02:02:00.908Z,47.25
2018-07-03T02:04:31.590Z,48.17
2018-07-03T02:07:02.242Z,48.11
2018-07-03T02:09:32.947Z,48.70
2018-07-03T02:12:03.647Z,48.77
2018-07-03T02:14:34.299Z,49.35
2018-07-03T02:17:05.248Z,49.76
2018-07-03T02:19:35.975Z,49.97
2018-07-03T02:22:06.720Z,50.17
2018-07-03T02:24:37.379Z,50.54
2018-07-03T02:27:08.086Z,50.85
2018-07-03T02:29:38.818Z,51.10
2018-07-03T02:32:09.464Z,51.14
2018-07-03T02:34:40.151Z,51.34
2018-07-03T02:37:10.767Z,51.55
2018-07-03T02:39:41.436Z,52.29
2018-07-03T02:42:12.141Z,52.27
2018-07-03T02:44:42.859Z,52.21
2018-07-03T02:47:13.533Z,52.69
2018-07-03T02:49:44.202Z,52.85
2018-07-03T02:52:14.892Z,52.75
2018-07-03T02:54:45.561Z,53.15
2018-07-03T02:57:16.243Z,52.88
2018-07-03T02:59:46.935Z,53.23
2018-07-03T03:02:17.621Z,53.36
2018-07-03T03:04:48.382Z,53.42
2018-07-03T03:07:19.084Z,53.54
2018-07-03T03:09:49.708Z,53.39
2018-07-03T03:12:20.408Z,53.86
2018-07-03T03:14:51.126Z,53.97
2018-07-03T03:17:21.794Z,54.00
2018-07-03T03:19:52.458Z,54.18
2018-07-03T03:22:23.224Z,54.01
2018-07-03T03:24:53.888Z,54.56
2018-07-03T03:27:24.550Z,54.08
2018-07-03T03:29:55.217Z,54.28
2018-07-03T03:32:25.859Z,54.05
2018-07-03T03:34:56.619Z,54.85
2018-07-03T03:37:27.310Z,54.19
2018-07-03T03:39:58.024Z,54.44
2018-07-03T03:42:28.693Z,54.81
2018-07-03T03:44:59.400Z,55.75
2018-07-03T03:47:30.061Z,55.31
2018-07-03T03:50:00.728Z,55.40
2018-07-03T03:52:31.393Z,55.77
2018-07-03T03:55:02.047Z,55.84
2018-07-03T03:57:32.739Z,55.78
2018-07-03T04:00:03.631Z,56.02
2018-07-03T04:02:34.293Z,55.93
2018-07-03T04:05:05.088Z,55.95
2018-07-03T04:07:35.839Z,55.84
2018-07-03T04:10:06.587Z,56.17
2018-07-03T04:12:36.950Z,56.36
2018-07-03T04:15:07.540Z,56.39
2018-07-03T04:17:38.192Z,55.98
2018-07-03T04:20:11.825Z,56.79
2018-07-03T04:22:42.448Z,56.61
2018-07-03T04:25:13.096Z,56.58
2018-07-03T04:27:43.747Z,56.27
2018-07-03T04:30:44.941Z,55.79
2018-07-03T04:33:15.614Z,56.65
2018-07-03T04:35:46.300Z,56.32
2018-07-03T04:38:16.928Z,55.87
2018-07-03T04:40:47.609Z,55.68
2018-07-03T04:43:18.507Z,55.42
2018-07-03T04:45:49.224Z,55.16
2018-07-03T04:48:19.905Z,54.81
2018-07-03T04:50:50.592Z,54.83
2018-07-03T04:53:21.361Z,54.45
2018-07-03T04:55:52.016Z,54.39
2018-07-03T04:58:22.726Z,54.16
2018-07-03T05:00:53.379Z,53.49
2018-07-03T05:03:24.076Z,53.87
2018-07-03T05:06:25.954Z,52.79
2018-07-03T05:08:56.647Z,53.26
2018-07-03T05:11:27.347Z,52.67
2018-07-03T05:13:58.013Z,52.00
2018-07-03T05:16:28.695Z,52.35
2018-07-03T05:18:59.380Z,51.12
2018-07-03T05:21:30.058Z,51.25
2018-07-03T05:24:00.679Z,50.80
2018-07-03T05:27:02.167Z,50.27
2018-07-03T05:29:39.576Z,50.02
2018-07-03T05:32:10.667Z,49.97
2018-07-03T05:34:41.355Z,49.59
2018-07-03T05:37:12.076Z,49.48
2018-07-03T05:39:42.751Z,48.71
2018-07-03T05:42:13.421Z,48.55
2018-07-03T05:44:44.109Z,48.73
2018-07-03T05:47:14.857Z,48.82
2018-07-03T05:49:45.611Z,48.78
2018-07-03T05:52:16.344Z,48.72
2018-07-03T05:54:47.003Z,48.27
2018-07-03T05:57:17.700Z,48.29
2018-07-03T05:59:48.470Z,47.97
2018-07-03T06:02:19.206Z,46.78
2018-07-03T06:04:49.848Z,46.50
2018-07-03T06:07:20.573Z,45.48
2018-07-03T06:09:51.263Z,45.51
2018-07-03T06:12:22.156Z,45.59
2018-07-03T06:14:53.812Z,44.93
2018-07-03T06:17:24.643Z,45.34
2018-07-03T06:19:55.227Z,44.81
2018-07-03T06:22:25.928Z,44.61
2018-07-03T06:24:56.600Z,44.81
2018-07-03T06:27:27.277Z,44.79
2018-07-03T06:29:58.040Z,44.21
2018-07-03T06:32:28.713Z,44.42
2018-07-03T06:34:59.370Z,43.95
2018-07-03T06:37:30.154Z,41.68
2018-07-03T06:40:00.862Z,41.39
2018-07-03T06:42:31.548Z,41.08
2018-07-03T06:45:02.323Z,40.91
2018-07-03T06:47:33.012Z,41.06
2018-07-03T06:50:03.752Z,40.21
2018-07-03T06:52:34.393Z,40.00
2018-07-03T06:55:05.149Z,39.29
2018-07-03T06:57:35.867Z,39.06
2018-07-03T07:00:07.667Z,39.66
2018-07-03T07:02:38.409Z,39.82
2018-07-03T07:05:09.073Z,40.08
2018-07-03T07:07:39.754Z,39.01
2018-07-03T07:10:10.491Z,38.08
2018-07-03T07:12:41.184Z,37.52
2018-07-03T07:15:11.908Z,37.92
2018-07-03T07:17:42.587Z,37.51
2018-07-03T07:20:13.296Z,36.12
2018-07-03T07:22:43.924Z,36.07
2018-07-03T07:25:14.605Z,35.85
2018-07-03T07:27:45.290Z,35.44
2018-07-03T07:30:15.998Z,35.42
2018-07-03T07:32:46.745Z,34.90
2018-07-03T07:35:17.463Z,34.72
2018-07-03T07:37:48.112Z,35.33
2018-07-03T07:40:18.816Z,34.33
2018-07-03T07:42:49.518Z,34.24
2018-07-03T07:45:20.219Z,32.96
2018-07-03T07:47:50.853Z,33.12
2018-07-03T07:50:21.528Z,32.42
2018-07-03T07:52:52.217Z,32.28
2018-07-03T07:55:22.877Z,31.11
2018-07-03T07:57:53.724Z,31.11
2018-07-03T08:00:24.388Z,31.28
2018-07-03T08:02:55.075Z,30.40
2018-07-03T08:05:25.754Z,28.65
2018-07-03T08:07:56.450Z,26.52
2018-07-03T08:10:27.133Z,25.85
2018-07-03T08:12:57.788Z,25.65
2018-07-03T08:15:28.508Z,25.96
2018-07-03T08:17:59.189Z,26.07
2018-07-03T08:20:29.858Z,25.25
2018-07-03T08:23:00.517Z,25.27
2018-07-03T08:25:31.218Z,25.24
2018-07-03T08:28:01.887Z,24.45
2018-07-03T08:30:32.497Z,23.83
2018-07-03T08:33:03.176Z,24.23
2018-07-03T08:35:33.873Z,23.28
2018-07-03T08:38:04.601Z,22.80
2018-07-03T08:40:35.288Z,23.22
2018-07-03T08:43:06.453Z,23.59
2018-07-03T08:45:37.209Z,23.21
2018-07-03T08:48:08.058Z,23.00
2018-07-03T08:50:38.713Z,21.91
2018-07-03T08:53:09.404Z,22.02
2018-07-03T08:55:40.855Z,21.68
2018-07-03T08:58:11.641Z,20.44
2018-07-03T09:00:42.283Z,20.14
2018-07-03T09:03:12.984Z,19.02
2018-07-03T09:05:43.653Z,18.21
2018-07-03T09:08:14.353Z,18.06
2018-07-03T09:10:45.097Z,19.12
2018-07-03T09:13:15.767Z,20.10
2018-07-03T09:15:46.450Z,20.59
2018-07-03T09:18:17.136Z,20.17
2018-07-03T09:20:47.830Z,19.60
2018-07-03T09:23:18.540Z,19.61
2018-07-03T09:25:49.303Z,19.64
2018-07-03T09:28:19.968Z,18.26
2018-07-03T09:30:50.631Z,17.55
2018-07-03T09:33:21.328Z,16.56
2018-07-03T09:35:52.036Z,17.71
2018-07-03T09:38:22.774Z,17.97
2018-07-03T09:41:08.034Z,17.48
2018-07-03T09:43:38.731Z,18.72
2018-07-03T09:46:09.441Z,18.52
2018-07-03T09:48:40.127Z,18.50
2018-07-03T09:51:10.863Z,19.07
2018-07-03T09:53:41.858Z,18.16
2018-07-03T09:56:18.825Z,18.58
2018-07-03T09:58:49.493Z,18.45
2018-07-03T10:01:21.102Z,18.63
2018-07-03T10:03:51.787Z,18.18
2018-07-03T10:06:22.508Z,17.67
2018-07-03T10:08:53.157Z,18.25
2018-07-03T10:11:23.834Z,17.90
2018-07-03T10:13:54.915Z,17.47
2018-07-03T10:16:25.604Z,16.04
2018-07-03T10:18:56.317Z,16.12
2018-07-03T10:21:27.003Z,16.64
2018-07-03T10:23:57.668Z,16.70
2018-07-03T10:26:28.428Z,16.61
2018-07-03T10:28:59.524Z,16.74
2018-07-03T10:31:30.562Z,17.10
2018-07-03T10:34:01.267Z,16.52
2018-07-03T10:36:31.944Z,17.73
2018-07-03T10:39:02.739Z,16.92
2018-07-03T10:41:33.419Z,17.09
2018-07-03T10:44:04.300Z,17.05
2018-07-03T10:46:34.977Z,16.64
2018-07-03T10:49:05.720Z,15.97
2018-07-03T10:51:36.435Z,16.40
2018-07-03T10:54:07.202Z,16.11
2018-07-03T10:56:37.866Z,16.38
2018-07-03T10:59:08.607Z,15.47
2018-07-03T11:01:39.304Z,15.97
2018-07-03T11:04:10.044Z,14.74
2018-07-03T11:06:40.751Z,15.65
2018-07-03T11:09:12.612Z,15.58
2018-07-03T11:11:43.339Z,15.96
2018-07-03T11:14:14.040Z,15.64
2018-07-03T11:16:44.856Z,15.63
2018-07-03T11:19:15.516Z,15.46
2018-07-03T11:21:46.253Z,16.31
2018-07-03T11:24:16.989Z,16.13
2018-07-03T11:26:47.728Z,15.62
2018-07-03T11:29:18.470Z,14.59
2018-07-03T11:31:49.239Z,15.26
2018-07-03T11:34:19.954Z,15.34
2018-07-03T11:36:50.640Z,15.39
2018-07-03T11:39:21.339Z,15.81
2018-07-03T11:41:52.044Z,16.35
2018-07-03T11:44:22.761Z,17.35
2018-07-03T11:46:53.464Z,15.89
2018-07-03T11:49:24.205Z,15.51
2018-07-03T11:51:54.915Z,16.29
2018-07-03T11:54:25.640Z,15.11
2018-07-03T11:56:56.358Z,16.02
2018-07-03T11:59:27.055Z,15.58
2018-07-03T12:02:28.823Z,14.63
2018-07-03T12:04:59.509Z,14.37
2018-07-03T12:07:30.244Z,14.00
2018-07-03T12:10:00.942Z,15.58
2018-07-03T12:12:31.625Z,15.03
2018-07-03T12:15:02.361Z,14.58
2018-07-03T12:17:33.045Z,14.40
2018-07-03T12:20:03.851Z,14.01
2018-07-03T12:22:34.532Z,14.28
2018-07-03T12:25:05.685Z,13.81
2018-07-03T12:27:36.400Z,13.85
2018-07-03T12:30:11.728Z,14.26
2018-07-03T12:32:42.403Z,13.12
2018-07-03T12:35:13.069Z,13.02
2018-07-03T12:37:43.735Z,13.19
2018-07-03T12:40:14.467Z,12.23
2018-07-03T12:42:45.179Z,13.07
2018-07-03T12:45:15.860Z,12.33
2018-07-03T12:47:46.584Z,12.13
2018-07-03T12:50:17.320Z,12.04
2018-07-03T12:52:48.024Z,12.86
2018-07-03T12:55:18.773Z,13.45
2018-07-03T12:57:49.488Z,13.45
2018-07-03T13:00:20.277Z,13.02
2018-07-03T13:02:51.003Z,12.58
2018-07-03T13:05:21.739Z,12.94
2018-07-03T13:07:52.509Z,12.64
2018-07-03T13:10:23.263Z,11.95
2018-07-03T13:12:54.254Z,11.77
2018-07-03T13:15:25.595Z,12.00
2018-07-03T13:17:56.240Z,12.55
2018-07-03T13:20:26.869Z,12.46
2018-07-03T13:22:57.630Z,12.22
2018-07-03T13:25:28.303Z,11.91
2018-07-03T13:27:58.939Z,11.74
2018-07-03T13:30:29.612Z,12.62
2018-07-03T13:33:00.352Z,12.49
2018-07-03T13:35:31.045Z,11.84
2018-07-03T13:38:01.732Z,12.08
2018-07-03T13:40:32.464Z,11.41
2018-07-03T13:43:03.145Z,11.88
2018-07-03T13:45:33.834Z,11.94
2018-07-03T13:48:04.777Z,12.04
2018-07-03T13:50:35.483Z,12.05
2018-07-03T13:53:06.236Z,12.03
2018-07-03T13:55:36.927Z,11.83
2018-07-03T13:58:08.216Z,11.78
2018-07-03T14:00:38.931Z,11.39
2018-07-03T14:03:09.588Z,11.53
2018-07-03T14:05:40.337Z,12.12
2018-07-03T14:08:11.166Z,12.69
2018-07-03T14:10:41.839Z,11.94
2018-07-03T14:13:12.460Z,10.95
2018-07-03T14:15:43.200Z,11.70
2018-07-03T14:18:13.871Z,11.35
2018-07-03T14:20:44.528Z,11.06
2018-07-03T14:23:15.139Z,11.51
2018-07-03T14:25:45.814Z,11.20
2018-07-03T14:28:16.585Z,10.84
2018-07-03T14:30:47.270Z,11.96
2018-07-03T14:33:17.992Z,11.50
2018-07-03T14:35:48.733Z,11.57
2018-07-03T14:38:19.362Z,11.94
2018-07-03T14:40:50.047Z,11.25
2018-07-03T14:43:20.845Z,11.20
2018-07-03T14:45:51.605Z,11.13
2018-07-03T14:48:22.278Z,11.69
2018-07-03T14:50:52.973Z,11.32
2018-07-03T14:53:23.647Z,10.93
2018-07-03T14:55:54.347Z,11.59
2018-07-03T14:58:25.024Z,11.68
2018-07-03T15:00:55.712Z,11.39
2018-07-03T15:03:26.328Z,12.04
2018-07-03T15:05:56.985Z,11.91
2018-07-03T15:08:27.653Z,12.18
2018-07-03T15:10:58.364Z,12.33
2018-07-03T15:13:28.712Z,11.41
2018-07-03T15:15:59.272Z,11.53
2018-07-03T15:18:35.169Z,11.67
2018-07-03T15:21:05.865Z,11.65
2018-07-03T15:23:36.494Z,11.32
2018-07-03T15:26:07.302Z,11.08
2018-07-03T15:28:37.945Z,11.51
2018-07-03T15:31:08.614Z,12.29
2018-07-03T15:33:39.282Z,12.34
2018-07-03T15:36:09.995Z,11.61
2018-07-03T15:38:40.699Z,11.37
2018-07-03T15:41:11.348Z,11.97
2018-07-03T15:43:53.635Z,12.49
2018-07-03T15:46:24.321Z,12.17
2018-07-03T15:48:54.901Z,11.93
2018-07-03T15:51:25.421Z,12.62
2018-07-03T15:53:56.125Z,13.00
2018-07-03T15:56:26.854Z,12.13
2018-07-03T15:58:57.558Z,12.81
2018-07-03T16:01:28.330Z,12.62
2018-07-03T16:04:16.538Z,13.14
2018-07-03T16:07:08.560Z,12.81
2018-07-03T16:09:39.261Z,12.93
2018-07-03T16:12:09.929Z,13.40
2018-07-03T16:14:40.595Z,13.48
2018-07-03T16:17:11.294Z,13.33
2018-07-03T16:19:47.315Z,13.11
2018-07-03T16:22:17.985Z,13.26
2018-07-03T16:24:48.751Z,12.62
2018-07-03T16:27:19.364Z,12.67
2018-07-03T16:29:50.034Z,13.07
2018-07-03T16:32:20.692Z,13.61
2018-07-03T16:34:51.380Z,13.29
2018-07-03T16:37:22.060Z,13.02
2018-07-03T16:39:52.953Z,13.64
2018-07-03T16:42:23.587Z,13.61
2018-07-03T16:44:54.321Z,13.27
2018-07-03T16:47:24.969Z,13.55
2018-07-03T16:49:55.698Z,13.85
2018-07-03T16:52:26.389Z,14.65
2018-07-03T16:54:57.044Z,14.50
2018-07-03T16:57:27.775Z,14.58
2018-07-03T16:59:58.454Z,14.49
2018-07-03T17:02:29.097Z,14.25
2018-07-03T17:04:59.739Z,14.54
2018-07-03T17:07:30.496Z,14.75
2018-07-03T17:10:01.221Z,15.03
2018-07-03T17:12:31.894Z,15.50
2018-07-03T17:15:02.584Z,15.20
2018-07-03T17:17:33.256Z,15.32
2018-07-03T17:20:03.988Z,15.67
2018-07-03T17:22:34.671Z,15.17
2018-07-03T17:25:05.903Z,14.79
2018-07-03T17:27:36.533Z,15.71
2018-07-03T17:30:07.341Z,15.85
2018-07-03T17:32:38.060Z,16.14
2018-07-03T17:35:08.751Z,15.63
2018-07-03T17:37:39.420Z,16.29
2018-07-03T17:40:27.055Z,16.26
2018-07-03T17:44:20.450Z,15.82
2018-07-03T17:46:51.140Z,16.38
2018-07-03T17:49:21.832Z,15.80
2018-07-03T17:51:52.542Z,15.97
2018-07-03T17:54:23.207Z,15.76
2018-07-03T17:56:53.865Z,15.97
2018-07-03T17:59:24.610Z,16.42
2018-07-03T18:01:55.319Z,17.05
2018-07-03T18:04:25.957Z,17.72
2018-07-03T18:06:56.622Z,18.57
2018-07-03T18:09:27.328Z,18.06
2018-07-03T18:11:57.996Z,18.48
2018-07-03T18:14:28.682Z,18.87
2018-07-03T18:16:59.325Z,19.06
2018-07-03T18:19:35.189Z,18.68
2018-07-03T18:22:05.910Z,18.75
2018-07-03T18:24:36.617Z,19.54
2018-07-03T18:27:07.310Z,19.98
2018-07-03T18:29:37.994Z,19.55
2018-07-03T18:32:08.676Z,19.44
2018-07-03T18:34:39.500Z,20.00
2018-07-03T18:37:10.167Z,20.58
2018-07-03T18:39:40.846Z,20.73
2018-07-03T18:42:11.507Z,21.04
2018-07-03T18:44:42.174Z,20.97
2018-07-03T18:47:12.872Z,21.43
2018-07-03T18:49:43.548Z,20.70
2018-07-03T18:52:13.936Z,21.41
2018-07-03T18:54:44.441Z,21.29
2018-07-03T18:57:15.144Z,21.23
2018-07-03T18:59:45.945Z,21.48
2018-07-03T19:02:16.663Z,21.82
2018-07-03T19:04:47.335Z,21.80
2018-07-03T19:07:17.987Z,22.35
2018-07-03T19:09:48.663Z,22.29
2018-07-03T19:12:19.369Z,22.71
2018-07-03T19:14:50.087Z,22.86
2018-07-03T19:17:20.812Z,23.31
2018-07-03T19:19:51.480Z,24.08
2018-07-03T19:22:22.201Z,23.97
2018-07-03T19:24:52.912Z,23.55
2018-07-03T19:27:23.610Z,24.01
2018-07-03T19:29:54.339Z,23.48
2018-07-03T19:32:25.011Z,24.07
2018-07-03T19:34:55.676Z,24.37
2018-07-03T19:37:26.415Z,25.09
2018-07-03T19:39:57.076Z,25.42
2018-07-03T19:42:27.827Z,25.76
2018-07-03T19:44:58.464Z,25.76
2018-07-03T19:47:29.108Z,25.32
2018-07-03T19:49:59.760Z,25.95
2018-07-03T19:52:30.477Z,26.35
2018-07-03T19:55:01.151Z,26.44
2018-07-03T19:57:31.818Z,26.26
2018-07-03T20:00:02.502Z,26.33
2018-07-03T20:02:33.185Z,26.63
2018-07-03T20:05:03.866Z,26.69
2018-07-03T20:07:34.560Z,26.27
2018-07-03T20:10:05.339Z,26.24
2018-07-03T20:12:36.036Z,26.72
2018-07-03T20:15:06.775Z,26.71
2018-07-03T20:17:37.463Z,26.92
2018-07-03T20:20:08.355Z,26.67
2018-07-03T20:22:39.017Z,27.33
2018-07-03T20:25:09.744Z,27.57
2018-07-03T20:27:40.455Z,27.50
2018-07-03T20:30:11.123Z,27.42
2018-07-03T20:32:41.783Z,27.36
2018-07-03T20:35:12.437Z,27.28
2018-07-03T20:38:07.203Z,27.54
2018-07-03T20:41:10.328Z,27.36
2018-07-03T20:43:42.169Z,27.21
2018-07-03T20:46:12.880Z,28.00
2018-07-03T20:48:43.551Z,27.99
2018-07-03T20:51:14.252Z,27.88
2018-07-03T20:53:44.932Z,27.77
2018-07-03T20:56:15.611Z,27.69
2018-07-03T20:58:46.255Z,28.86
2018-07-03T21:01:16.956Z,28.27
2018-07-03T21:03:47.833Z,28.67
2018-07-03T21:06:18.579Z,28.39
2018-07-03T21:08:49.152Z,29.01
2018-07-03T21:11:19.839Z,29.21
2018-07-03T21:13:50.553Z,28.77
2018-07-03T21:16:21.230Z,29.47
2018-07-03T21:18:51.864Z,29.27
2018-07-03T21:21:37.301Z,29.99
2018-07-03T21:24:08.119Z,30.15
2018-07-03T21:26:38.748Z,30.55
2018-07-03T21:29:09.446Z,31.43
2018-07-03T21:31:40.171Z,32.08
2018-07-03T21:34:10.752Z,32.71
2018-07-03T21:36:41.488Z,33.51
2018-07-03T21:39:12.288Z,34.27
2018-07-03T21:41:42.931Z,34.55
2018-07-03T21:44:13.719Z,35.20
2018-07-03T21:46:44.347Z,35.38
2018-07-03T21:49:15.088Z,36.01
2018-07-03T21:51:45.781Z,36.58
2018-07-03T21:54:16.925Z,37.03
2018-07-03T21:56:47.557Z,37.33
2018-07-03T21:59:18.229Z,38.16
2018-07-03T22:01:48.903Z,38.57
2018-07-03T22:04:25.681Z,38.59
2018-07-03T22:06:56.879Z,39.50
2018-07-03T22:09:27.567Z,40.02
2018-07-03T22:11:58.318Z,40.58
2018-07-03T22:14:28.872Z,40.39
2018-07-03T22:16:59.571Z,41.42
2018-07-03T22:19:30.188Z,41.62
2018-07-03T22:22:00.893Z,42.01
2018-07-03T22:24:31.764Z,42.30
2018-07-03T22:27:02.449Z,42.22
2018-07-03T22:29:33.146Z,42.49
2018-07-03T22:32:03.856Z,43.17
2018-07-03T22:34:34.531Z,43.52
2018-07-03T22:37:05.270Z,43.65
2018-07-03T22:39:36.024Z,43.73
2018-07-03T22:42:06.652Z,44.36
2018-07-03T22:44:37.339Z,44.74
2018-07-03T22:47:07.996Z,44.88
2018-07-03T22:49:38.687Z,45.13
2018-07-03T22:52:09.339Z,45.30
2018-07-03T22:54:40.010Z,45.69
2018-07-03T22:57:10.702Z,46.31
2018-07-03T22:59:41.399Z,46.39
2018-07-03T23:02:12.100Z,46.43
2018-07-03T23:04:42.743Z,46.95
2018-07-03T23:07:13.412Z,47.16
2018-07-03T23:09:44.061Z,47.50
2018-07-03T23:12:20.570Z,47.16
2018-07-03T23:14:52.102Z,47.97
2018-07-03T23:17:22.770Z,48.10
2018-07-03T23:19:53.407Z,48.39
2018-07-03T23:22:24.083Z,48.46
2018-07-03T23:24:54.730Z,48.77
2018-07-03T23:27:25.432Z,48.83
2018-07-03T23:29:56.119Z,49.14
2018-07-03T23:32:26.760Z,49.70
2018-07-03T23:34:57.432Z,49.58
2018-07-03T23:37:28.099Z,49.52
2018-07-03T23:39:58.814Z,49.96
2018-07-03T23:42:29.500Z,49.95
2018-07-03T23:45:00.125Z,50.16
2018-07-03T23:47:47.784Z,50.50
2018-07-03T23:50:35.041Z,50.24
2018-07-03T23:53:22.563Z,50.27
2018-07-03T23:56:10.148Z,51.00
2018-07-03T23:58:57.546Z,50.83
